Time;durP1;ratioP1;P1;durP2;ratioP2;P2;SDS_P1;SDS_P2;PMS_P1;PMS_P2;Temp;Humidity;BMP_temperature;BMP_pressure;BME280_temperature;BME280_humidity;BME280_pressure;Samples;Min_cycle;Max_cycle;Signal;HPM_P1;HPM_P2
2023/12/18 00:01:46;;;;;;;0.95;0.90;;;;;;;4.20;59.42;101603.91;5304426;26;25051;-89
2023/12/18 00:04:12;;;;;;;1.52;1.35;;;;;;;4.21;59.41;101599.59;5304087;26;28038;-90
2023/12/18 00:06:37;;;;;;;1.27;1.17;;;;;;;4.32;59.41;101600.75;5323639;26;20068;-89
2023/12/18 00:09:03;;;;;;;2.45;0.52;;;;;;;4.38;59.42;101600.88;5304483;26;20106;-89
2023/12/18 00:11:28;;;;;;;0.28;0.28;;;;;;;4.44;59.42;101601.00;5323657;26;20072;-90
2023/12/18 00:13:53;;;;;;;0.47;0.37;;;;;;;4.20;59.42;101609.06;5304894;26;20381;-90
2023/12/18 00:16:19;;;;;;;0.57;0.57;;;;;;;4.44;59.43;101616.47;5323127;26;20420;-88
2023/12/18 00:18:44;;;;;;;0.03;0.03;;;;;;;4.28;59.42;101609.25;5322568;26;28188;-89
2023/12/18 00:21:10;;;;;;;1.35;0.95;;;;;;;4.17;59.41;101611.56;5322590;26;25453;-89
2023/12/18 00:23:35;;;;;;;0.43;0.43;;;;;;;4.14;59.41;101610.63;5304478;26;20088;-89
2023/12/18 00:26:00;;;;;;;3.20;1.20;;;;;;;3.98;59.41;101620.53;5322955;26;20420;-89
2023/12/18 00:28:26;;;;;;;1.08;1.08;;;;;;;3.98;59.39;101606.78;5322925;26;20068;-88
2023/12/18 00:30:51;;;;;;;0.05;0.05;;;;;;;4.01;59.40;101610.31;5323483;26;20076;-89
2023/12/18 00:33:17;;;;;;;1.75;1.45;;;;;;;3.93;59.39;101608.38;5322332;26;23895;-89
2023/12/18 00:35:42;;;;;;;1.00;0.70;;;;;;;4.07;59.41;101617.34;5323229;26;20107;-89
2023/12/18 00:38:08;;;;;;;1.02;0.95;;;;;;;4.01;59.40;101615.47;5321646;26;26553;-89
2023/12/18 00:40:33;;;;;;;1.92;1.65;;;;;;;3.98;59.41;101611.94;5304165;26;27266;-89
2023/12/18 00:42:58;;;;;;;0.20;0.20;;;;;;;3.81;59.38;101608.09;5323145;26;20397;-89
2023/12/18 00:45:24;;;;;;;0.35;0.35;;;;;;;3.70;59.39;101595.81;5323263;26;20369;-90
2023/12/18 00:47:49;;;;;;;0.60;0.60;;;;;;;3.70;59.38;101594.94;5304282;26;23496;-89
2023/12/18 00:50:15;;;;;;;9.73;2.78;;;;;;;3.75;59.38;101589.91;5304489;26;20087;-89
2023/12/18 00:52:40;;;;;;;0.32;0.30;;;;;;;3.68;59.38;101594.91;5322915;26;20378;-89
2023/12/18 00:55:06;;;;;;;1.73;1.20;;;;;;;3.83;59.38;101596.13;5323138;26;20342;-88
2023/12/18 00:57:32;;;;;;;0.57;0.57;;;;;;;4.00;59.40;101589.66;5288916;26;20125;-88
2023/12/18 00:59:57;;;;;;;1.50;1.40;;;;;;;4.16;59.41;101585.75;5304722;26;20135;-90
2023/12/18 01:02:23;;;;;;;0.37;0.37;;;;;;;4.17;59.41;101592.66;5304870;26;20389;-89
2023/12/18 01:04:48;;;;;;;0.30;0.30;;;;;;;3.95;59.40;101597.28;5304343;26;20080;-88
2023/12/18 01:07:13;;;;;;;0.10;0.10;;;;;;;3.89;59.39;101585.97;5304841;26;20394;-89
2023/12/18 01:09:39;;;;;;;2.00;1.23;;;;;;;3.74;59.38;101586.44;5323060;26;20406;-88
2023/12/18 01:12:04;;;;;;;0.00;0.00;;;;;;;3.70;59.38;101589.78;5322487;26;24765;-89
2023/12/18 01:14:30;;;;;;;0.52;0.52;;;;;;;3.79;59.39;101587.47;5323169;26;20052;-89
2023/12/18 01:16:55;;;;;;;0.40;0.40;;;;;;;3.87;59.38;101583.34;5323169;26;20100;-89
2023/12/18 01:19:21;;;;;;;1.95;1.35;;;;;;;3.72;59.39;101587.25;5304791;26;20076;-89
2023/12/18 01:21:46;;;;;;;0.00;0.00;;;;;;;3.83;59.38;101585.81;5304829;26;20056;-89
2023/12/18 01:24:12;;;;;;;1.15;0.98;;;;;;;3.74;59.38;101590.72;5322488;26;23707;-88
2023/12/18 01:26:37;;;;;;;0.25;0.25;;;;;;;3.44;59.37;101590.81;5303977;26;28539;-89
2023/12/18 01:29:03;;;;;;;0.00;0.00;;;;;;;3.52;59.37;101592.75;5323246;26;20110;-89
2023/12/18 01:31:29;;;;;;;0.08;0.08;;;;;;;3.26;59.36;101596.34;5304863;26;20068;-89
2023/12/18 01:33:54;;;;;;;0.10;0.10;;;;;;;3.38;59.36;101592.41;5303494;26;23512;-88
2023/12/18 01:36:20;;;;;;;1.37;1.27;;;;;;;3.42;59.37;101595.06;5322636;26;20076;-89
2023/12/18 01:38:45;;;;;;;1.90;1.60;;;;;;;3.43;59.37;101589.06;5304280;26;20060;-89
2023/12/18 01:41:11;;;;;;;1.55;1.45;;;;;;;3.55;59.37;101579.97;5304526;26;20380;-89
2023/12/18 01:43:36;;;;;;;0.43;0.43;;;;;;;3.32;59.37;101581.97;5304686;26;20056;-89
2023/12/18 01:46:03;;;;;;;0.00;0.00;;;;;;;3.50;59.37;101583.25;5304970;26;20357;-89
2023/12/18 01:48:28;;;;;;;1.10;1.10;;;;;;;3.61;59.38;101576.69;5304867;26;20075;-88
2023/12/18 01:50:54;;;;;;;1.23;1.20;;;;;;;3.42;59.36;101567.62;5305620;26;20057;-89
2023/12/18 01:53:21;;;;;;;0.20;0.20;;;;;;;3.53;59.38;101565.31;5305931;26;20049;-90
2023/12/18 01:55:46;;;;;;;0.68;0.62;;;;;;;3.38;59.36;101571.81;5305699;26;20425;-90
2023/12/18 01:58:12;;;;;;;0.15;0.10;;;;;;;3.38;59.36;101569.25;5323440;26;26675;-89
2023/12/18 02:00:37;;;;;;;1.33;1.23;;;;;;;3.65;59.38;101565.63;5306713;26;23297;-90
2023/12/18 02:03:03;;;;;;;0.00;0.00;;;;;;;3.49;59.37;101558.34;5304597;26;23401;-89
2023/12/18 02:05:28;;;;;;;0.52;0.52;;;;;;;3.45;59.36;101561.66;5323764;26;20102;-88
2023/12/18 02:07:53;;;;;;;2.83;1.65;;;;;;;3.49;59.37;101560.91;5305548;26;20068;-88
2023/12/18 02:10:19;;;;;;;1.12;1.08;;;;;;;3.50;59.37;101566.09;5323100;26;31022;-89
2023/12/18 02:12:44;;;;;;;0.00;0.00;;;;;;;3.41;59.37;101565.00;5305088;26;22264;-88
2023/12/18 02:15:09;;;;;;;0.25;0.25;;;;;;;3.41;59.37;101565.00;5323735;26;20072;-89
2023/12/18 02:17:35;;;;;;;1.33;0.77;;;;;;;3.68;59.38;101560.53;5305425;26;20358;-89
2023/12/18 02:20:07;;;;;;;0.43;0.43;;;;;;;3.52;59.37;101555.84;5305443;26;20428;-89
2023/12/18 02:22:36;;;;;;;0.28;0.28;;;;;;;3.56;59.37;101552.53;5305595;26;20754;-88
2023/12/18 02:25:02;;;;;;;0.28;0.28;;;;;;;3.33;59.36;101554.50;5306061;26;20071;-88
2023/12/18 02:27:28;;;;;;;0.40;0.40;;;;;;;3.55;59.38;101548.19;5305658;26;20068;-88
2023/12/18 02:29:53;;;;;;;2.78;1.95;;;;;;;3.25;59.36;101550.84;5305097;26;20145;-89
2023/12/18 02:32:18;;;;;;;0.28;0.28;;;;;;;3.43;59.36;101548.75;5323843;26;20078;-88
2023/12/18 02:34:44;;;;;;;0.20;0.20;;;;;;;3.32;59.36;101548.50;5322975;26;30598;-90
2023/12/18 02:37:09;;;;;;;1.05;1.02;;;;;;;3.27;59.36;101546.59;5323036;26;27922;-89
2023/12/18 02:39:34;;;;;;;4.43;2.30;;;;;;;3.35;59.36;101542.56;5323491;26;20072;-89
2023/12/18 02:42:00;;;;;;;3.30;0.47;;;;;;;3.49;59.37;101537.75;5323721;26;20066;-89
2023/12/18 02:44:25;;;;;;;1.08;1.00;;;;;;;3.48;59.37;101542.03;5323948;26;20334;-88
2023/12/18 02:46:50;;;;;;;0.20;0.20;;;;;;;3.52;59.37;101524.94;5305027;26;20279;-89
2023/12/18 02:49:16;;;;;;;2.42;1.42;;;;;;;3.57;59.38;101525.94;5304840;26;20097;-88
2023/12/18 02:51:41;;;;;;;0.40;0.40;;;;;;;3.63;59.38;101529.53;5323227;26;20064;-88
2023/12/18 02:54:07;;;;;;;0.57;0.57;;;;;;;3.52;59.37;101532.66;5304563;26;25717;-89
2023/12/18 02:56:32;;;;;;;0.32;0.32;;;;;;;3.72;59.38;101539.19;5323431;26;20112;-88
2023/12/18 02:58:57;;;;;;;0.80;0.73;;;;;;;3.77;59.39;101539.28;5323091;26;29155;-88
2023/12/18 03:01:23;;;;;;;0.57;0.57;;;;;;;3.54;59.38;101542.16;5324333;26;22243;-86
2023/12/18 03:03:48;;;;;;;1.27;0.75;;;;;;;3.67;59.38;101538.22;5304872;26;26426;-88
2023/12/18 03:06:13;;;;;;;1.98;1.20;;;;;;;3.47;59.37;101536.84;5304885;26;20398;-88
2023/12/18 03:08:39;;;;;;;1.37;0.65;;;;;;;3.35;59.36;101547.69;5323017;26;27451;-88
2023/12/18 03:11:04;;;;;;;0.28;0.28;;;;;;;3.34;59.36;101544.25;5305173;26;20083;-87
2023/12/18 03:13:30;;;;;;;3.08;1.52;;;;;;;3.52;59.37;101543.84;5323868;26;20116;-87
2023/12/18 03:15:55;;;;;;;8.57;3.45;;;;;;;3.39;59.37;101545.25;5305511;26;20041;-88
2023/12/18 03:18:21;;;;;;;0.85;0.85;;;;;;;3.08;59.34;101541.00;5323884;26;20074;-88
2023/12/18 03:20:47;;;;;;;0.28;0.22;;;;;;;3.59;59.37;101542.31;5323716;26;20397;-88
2023/12/18 03:23:12;;;;;;;0.70;0.70;;;;;;;3.37;59.36;101541.75;5305575;26;20098;-88
2023/12/18 03:25:37;;;;;;;0.37;0.37;;;;;;;3.42;59.37;101530.69;5323488;26;20103;-88
2023/12/18 03:28:03;;;;;;;0.40;0.40;;;;;;;3.63;59.38;101539.84;5304319;26;33987;-88
2023/12/18 03:30:28;;;;;;;0.00;0.00;;;;;;;3.55;59.37;101535.31;5323430;26;20475;-88
2023/12/18 03:32:55;;;;;;;1.15;1.10;;;;;;;3.58;59.37;101532.84;5305400;26;20131;-88
2023/12/18 03:35:20;;;;;;;2.00;1.90;;;;;;;3.59;59.37;101532.00;5305299;26;20476;-88
2023/12/18 03:37:46;;;;;;;1.20;1.08;;;;;;;3.57;59.37;101537.12;5322986;26;22739;-88
2023/12/18 03:40:11;;;;;;;0.20;0.20;;;;;;;3.75;59.38;101546.09;5323203;26;20040;-89
2023/12/18 03:42:38;;;;;;;0.80;0.80;;;;;;;3.48;59.37;101541.16;5323495;26;20331;-89
2023/12/18 03:45:04;;;;;;;1.75;1.65;;;;;;;3.17;59.34;101537.78;5305408;26;20061;-89
2023/12/18 03:47:30;;;;;;;1.17;1.10;;;;;;;3.15;59.35;101531.72;5305126;26;20067;-89
2023/12/18 03:49:55;;;;;;;0.13;0.13;;;;;;;3.11;59.35;101532.50;5323039;26;20440;-90
2023/12/18 03:52:20;;;;;;;1.50;1.40;;;;;;;3.09;59.34;101531.56;5304605;26;28304;-89
2023/12/18 03:54:46;;;;;;;1.02;0.65;;;;;;;3.10;59.35;101530.75;5342992;26;21176;-89
2023/12/18 03:57:11;;;;;;;0.95;0.95;;;;;;;3.25;59.36;101525.13;5322793;26;27755;-89
2023/12/18 03:59:36;;;;;;;0.50;0.50;;;;;;;3.41;59.37;101518.66;5323563;26;20080;-88
2023/12/18 04:02:02;;;;;;;0.90;0.45;;;;;;;3.46;59.37;101507.66;5323007;26;20160;-88
2023/12/18 04:04:27;;;;;;;1.90;1.08;;;;;;;3.19;59.35;101512.09;5325241;26;20072;-89
2023/12/18 04:06:53;;;;;;;0.15;0.15;;;;;;;3.04;59.34;101517.69;5323165;26;20108;-89
2023/12/18 04:09:18;;;;;;;0.73;0.73;;;;;;;2.97;59.35;101518.37;5323447;26;20077;-89
2023/12/18 04:11:43;;;;;;;1.75;0.82;;;;;;;3.05;59.34;101520.31;5304893;26;20090;-89
2023/12/18 04:14:09;;;;;;;0.40;0.40;;;;;;;3.08;59.34;101525.56;5304409;26;28312;-88
2023/12/18 04:16:35;;;;;;;0.20;0.10;;;;;;;3.17;59.34;101531.78;5323545;26;20452;-89
2023/12/18 04:19:00;;;;;;;0.28;0.28;;;;;;;3.07;59.35;101525.50;5323723;26;20037;-89
2023/12/18 04:21:26;;;;;;;0.85;0.85;;;;;;;3.04;59.34;101525.41;5323618;26;20072;-90
2023/12/18 04:23:51;;;;;;;0.95;0.90;;;;;;;3.03;59.35;101526.25;5304465;26;23383;-89
2023/12/18 04:26:16;;;;;;;0.05;0.05;;;;;;;3.19;59.36;101522.38;5323510;26;20389;-89
2023/12/18 04:28:42;;;;;;;1.05;0.98;;;;;;;3.05;59.35;101524.59;5304511;26;25526;-88
2023/12/18 04:31:07;;;;;;;2.10;0.62;;;;;;;2.97;59.34;101518.37;5303664;26;20100;-89
2023/12/18 04:33:32;;;;;;;1.33;1.20;;;;;;;3.02;59.35;101520.22;5322776;26;20147;-89
2023/12/18 04:35:59;;;;;;;0.00;0.00;;;;;;;2.93;59.33;101513.97;5321451;26;20468;-89
2023/12/18 04:38:24;;;;;;;1.52;1.40;;;;;;;2.95;59.33;101514.87;5301540;26;20070;-88
2023/12/18 04:40:49;;;;;;;0.40;0.35;;;;;;;2.79;59.33;101511.00;5300638;26;20080;-88
2023/12/18 04:43:15;;;;;;;0.10;0.10;;;;;;;2.88;59.34;101510.41;5301601;26;20344;-88
2023/12/18 04:45:40;;;;;;;0.52;0.52;;;;;;;2.86;59.33;101514.66;5319066;26;22959;-89
2023/12/18 04:48:06;;;;;;;1.83;1.73;;;;;;;2.78;59.32;101512.72;5319608;26;20064;-89
2023/12/18 04:50:31;;;;;;;3.25;1.55;;;;;;;2.65;59.33;101522.63;5302460;26;20117;-88
2023/12/18 04:52:57;;;;;;;2.70;2.20;;;;;;;2.63;59.32;101516.56;5303206;26;30038;-87
2023/12/18 04:55:22;;;;;;;9.50;4.43;;;;;;;2.61;59.32;101511.41;5303718;26;29978;-88
2023/12/18 04:57:47;;;;;;;6.93;1.65;;;;;;;2.68;59.32;101512.44;5321828;26;29671;-89
2023/12/18 05:00:13;;;;;;;1.60;1.50;;;;;;;2.62;59.31;101522.56;5303752;26;27280;-89
2023/12/18 05:02:38;;;;;;;0.15;0.15;;;;;;;2.69;59.33;101514.16;5322794;26;20071;-89
2023/12/18 05:05:04;;;;;;;1.30;1.02;;;;;;;2.78;59.32;101509.28;5323914;26;20063;-89
2023/12/18 05:07:29;;;;;;;0.32;0.32;;;;;;;2.66;59.32;101516.66;5322335;26;27500;-89
2023/12/18 05:09:55;;;;;;;2.47;2.28;;;;;;;2.75;59.33;101520.34;5322203;26;20091;-89
2023/12/18 05:12:20;;;;;;;0.65;0.57;;;;;;;2.64;59.33;101516.62;5321981;26;20102;-90
2023/12/18 05:14:45;;;;;;;1.33;1.02;;;;;;;2.57;59.31;101522.38;5302708;26;20055;-89
2023/12/18 05:17:11;;;;;;;0.47;0.47;;;;;;;2.57;59.31;101518.94;5322585;26;20076;-89
2023/12/18 05:19:36;;;;;;;0.05;0.03;;;;;;;2.55;59.31;101520.59;5321865;26;27102;-90
2023/12/18 05:22:02;;;;;;;0.70;0.70;;;;;;;2.72;59.33;101515.13;5322963;26;20068;-89
2023/12/18 05:24:27;;;;;;;0.05;0.05;;;;;;;2.54;59.31;101517.16;5304961;26;20802;-88
2023/12/18 05:26:52;;;;;;;0.77;0.77;;;;;;;2.63;59.32;101512.31;5324139;26;20104;-89
2023/12/18 05:29:18;;;;;;;0.13;0.13;;;;;;;2.60;59.32;101516.47;5304958;26;24486;-89
2023/12/18 05:31:43;;;;;;;0.00;0.00;;;;;;;2.50;59.32;101515.34;5305529;26;20067;-89
2023/12/18 05:34:09;;;;;;;0.17;0.17;;;;;;;2.54;59.31;101506.88;5304957;26;27437;-89
2023/12/18 05:36:34;;;;;;;0.77;0.70;;;;;;;2.54;59.31;101512.03;5305715;26;20091;-89
2023/12/18 05:38:59;;;;;;;0.00;0.00;;;;;;;2.57;59.32;101506.09;5304643;26;30634;-89
2023/12/18 05:41:25;;;;;;;1.10;1.10;;;;;;;2.45;59.31;101506.62;5304663;26;29007;-89
2023/12/18 05:43:50;;;;;;;2.22;1.90;;;;;;;2.41;59.31;101510.81;5304516;26;26364;-89
2023/12/18 05:46:15;;;;;;;1.73;1.50;;;;;;;2.33;59.30;101514.84;5323353;26;28246;-89
2023/12/18 05:48:41;;;;;;;0.22;0.22;;;;;;;2.43;59.30;101510.84;5323281;26;24464;-89
2023/12/18 05:51:17;;;;;;;0.50;0.50;;;;;;;2.54;59.31;101512.03;5323388;26;24956;-88
2023/12/18 05:53:43;;;;;;;0.82;0.82;;;;;;;2.41;59.30;101515.97;5305673;26;20052;-88
2023/12/18 05:56:09;;;;;;;0.13;0.13;;;;;;;2.62;59.32;101522.56;5304738;26;25141;-89
2023/12/18 05:58:34;;;;;;;1.62;1.52;;;;;;;2.70;59.32;101521.94;5305708;26;20064;-89
2023/12/18 06:01:00;;;;;;;1.27;1.25;;;;;;;2.75;59.33;101512.63;5304823;26;29027;-89
2023/12/18 06:03:25;;;;;;;0.55;0.55;;;;;;;2.65;59.33;101514.91;5323812;26;20454;-88
2023/12/18 06:05:51;;;;;;;0.35;0.35;;;;;;;2.68;59.32;101520.16;5304580;26;37607;-88
2023/12/18 06:08:16;;;;;;;3.10;2.17;;;;;;;2.45;59.31;101522.91;5325337;26;20126;-88
2023/12/18 06:10:42;;;;;;;3.70;2.83;;;;;;;2.47;59.31;101523.84;5343085;26;24074;-88
2023/12/18 06:13:07;;;;;;;0.35;0.35;;;;;;;2.54;59.31;101524.87;5305287;26;20106;-89
2023/12/18 06:15:32;;;;;;;1.35;1.25;;;;;;;2.54;59.31;101527.44;5323149;26;24129;-89
2023/12/18 06:17:58;;;;;;;2.22;1.10;;;;;;;2.58;59.32;101518.13;5323703;26;20048;-89
2023/12/18 06:20:23;;;;;;;0.28;0.28;;;;;;;2.57;59.31;101522.38;5323832;26;20417;-88
2023/12/18 06:22:49;;;;;;;2.00;1.83;;;;;;;2.51;59.32;101517.06;5323759;26;20117;-89
2023/12/18 06:25:14;;;;;;;1.15;1.12;;;;;;;2.55;59.31;101518.03;5323595;26;27517;-89
2023/12/18 06:27:42;;;;;;;12.15;3.15;;;;;;;2.55;59.32;101513.75;5323458;26;20633;-90
2023/12/18 06:30:08;;;;;;;0.80;0.80;;;;;;;2.45;59.31;101522.06;5305622;26;20379;-90
2023/12/18 06:32:33;;;;;;;0.60;0.55;;;;;;;2.48;59.31;101517.00;5323098;26;20052;-88
2023/12/18 06:34:59;;;;;;;1.15;1.15;;;;;;;2.52;59.31;101526.53;5304289;26;25558;-88
2023/12/18 06:37:24;;;;;;;4.15;3.50;;;;;;;2.53;59.31;101530.84;5323293;26;20112;-88
2023/12/18 06:39:49;;;;;;;1.95;1.40;;;;;;;2.58;59.32;101531.84;5323070;26;20538;-89
2023/12/18 06:42:15;;;;;;;1.65;0.70;;;;;;;2.59;59.32;101532.72;5322919;26;27070;-89
2023/12/18 06:44:40;;;;;;;2.22;2.08;;;;;;;2.42;59.32;101540.81;5323255;26;24738;-89
2023/12/18 06:47:06;;;;;;;0.22;0.22;;;;;;;2.68;59.32;101539.00;5343947;26;20053;-90
2023/12/18 06:49:31;;;;;;;3.22;2.95;;;;;;;2.89;59.34;101537.88;5324021;26;20083;-89
2023/12/18 06:51:57;;;;;;;0.15;0.15;;;;;;;2.50;59.31;101537.59;5304092;26;34201;-89
2023/12/18 06:54:22;;;;;;;2.10;1.95;;;;;;;2.50;59.31;101535.03;5324019;26;20372;-89
2023/12/18 06:56:48;;;;;;;1.95;1.85;;;;;;;2.39;59.30;101540.75;5323714;26;20064;-88
2023/12/18 06:59:13;;;;;;;1.08;0.50;;;;;;;2.44;59.31;101540.88;5323296;26;25525;-88
2023/12/18 07:01:39;;;;;;;1.55;1.45;;;;;;;2.60;59.32;101542.16;5323758;26;20334;-90
2023/12/18 07:04:04;;;;;;;1.77;0.73;;;;;;;2.50;59.31;101542.75;5323336;26;23101;-88
2023/12/18 07:06:30;;;;;;;5.50;2.37;;;;;;;2.45;59.31;101545.19;5323151;26;32563;-89
2023/12/18 07:08:56;;;;;;;0.55;0.52;;;;;;;2.51;59.32;101550.50;5324870;26;20159;-89
2023/12/18 07:11:22;;;;;;;0.57;0.55;;;;;;;2.57;59.31;101542.94;5305175;26;20128;-89
2023/12/18 07:13:47;;;;;;;0.00;0.00;;;;;;;2.61;59.32;101544.81;5304885;26;20410;-89
2023/12/18 07:16:20;;;;;;;1.35;1.35;;;;;;;2.68;59.32;101549.28;5304562;26;22198;-89
2023/12/18 07:18:45;;;;;;;0.77;0.77;;;;;;;2.70;59.33;101554.47;5305366;26;20090;-89
2023/12/18 07:21:11;;;;;;;6.18;1.23;;;;;;;2.91;59.34;101547.38;5304294;26;28719;-89
2023/12/18 07:23:36;;;;;;;0.15;0.15;;;;;;;2.73;59.33;101550.28;5304328;26;34350;-90
2023/12/18 07:26:02;;;;;;;0.40;0.40;;;;;;;3.01;59.34;101548.47;5322942;26;25675;-90
2023/12/18 07:28:27;;;;;;;1.87;1.75;;;;;;;3.07;59.34;101554.66;5323640;26;20452;-89
2023/12/18 07:30:53;;;;;;;1.00;1.00;;;;;;;3.30;59.35;101544.97;5304674;26;22224;-89
2023/12/18 07:33:18;;;;;;;0.45;0.45;;;;;;;3.49;59.37;101548.91;5304585;26;29839;-89
2023/12/18 07:35:43;;;;;;;1.08;1.08;;;;;;;3.49;59.37;101554.06;5304396;26;24184;-89
2023/12/18 07:38:09;;;;;;;0.37;0.37;;;;;;;3.28;59.36;101558.66;5323069;26;26714;-89
2023/12/18 07:40:35;;;;;;;1.95;0.55;;;;;;;3.27;59.36;101544.03;5323622;26;20072;-89
2023/12/18 07:43:00;;;;;;;1.75;1.15;;;;;;;3.52;59.37;101540.38;5305162;26;20067;-89
2023/12/18 07:45:26;;;;;;;2.12;2.03;;;;;;;3.69;59.38;101547.72;5304938;26;20073;-89
2023/12/18 07:47:51;;;;;;;0.88;0.88;;;;;;;3.70;59.38;101543.44;5305082;26;20057;-89
2023/12/18 07:50:16;;;;;;;1.15;1.12;;;;;;;3.65;59.38;101545.03;5322771;26;27993;-88
2023/12/18 07:52:43;;;;;;;0.68;0.65;;;;;;;3.85;59.39;101536.09;5343948;26;20086;-89
2023/12/18 07:55:09;;;;;;;0.85;0.85;;;;;;;3.80;59.38;101542.84;5323752;26;20061;-89
2023/12/18 07:57:34;;;;;;;0.85;0.85;;;;;;;3.88;59.39;101537.84;5343713;26;20075;-89
2023/12/18 07:59:59;;;;;;;1.02;0.45;;;;;;;3.88;59.39;101543.00;5304905;26;20543;-90
2023/12/18 08:02:25;;;;;;;0.60;0.60;;;;;;;4.12;59.40;101542.72;5323559;26;20052;-89
2023/12/18 08:04:51;;;;;;;0.00;0.00;;;;;;;4.08;59.40;101543.47;5304433;26;26991;-89
2023/12/18 08:07:17;;;;;;;0.00;0.00;;;;;;;4.03;59.40;101545.09;5305312;26;20064;-90
2023/12/18 08:09:44;;;;;;;0.93;0.93;;;;;;;3.91;59.40;101549.09;5324229;26;20117;-90
2023/12/18 08:12:10;;;;;;;0.90;0.85;;;;;;;3.77;59.39;101547.88;5305360;26;20099;-90
2023/12/18 08:14:36;;;;;;;5.32;2.83;;;;;;;3.97;59.39;101543.22;5305063;26;20057;-89
2023/12/18 08:17:01;;;;;;;0.98;0.98;;;;;;;4.04;59.40;101533.94;5304006;26;30799;-90
2023/12/18 08:19:26;;;;;;;3.65;0.70;;;;;;;4.05;59.41;101531.41;5322868;26;20625;-89
2023/12/18 08:21:52;;;;;;;1.55;1.17;;;;;;;4.07;59.40;101523.69;5322853;26;28502;-90
2023/12/18 08:24:17;;;;;;;1.25;1.15;;;;;;;4.18;59.40;101522.22;5322990;26;20343;-90
2023/12/18 08:26:46;;;;;;;0.50;0.50;;;;;;;4.38;59.42;101522.66;5323681;26;20094;-90
2023/12/18 08:29:12;;;;;;;0.37;0.37;;;;;;;4.40;59.42;101524.44;5286806;26;20096;-89
2023/12/18 08:31:38;;;;;;;1.33;1.25;;;;;;;4.61;59.43;101518.88;5304184;26;30792;-90
2023/12/18 08:34:04;;;;;;;1.37;1.00;;;;;;;4.76;59.44;101516.59;5304097;26;26736;-91
2023/12/18 08:36:30;;;;;;;0.98;0.98;;;;;;;4.85;59.44;101513.31;5304923;26;20362;-90
2023/12/18 08:38:55;;;;;;;3.00;1.40;;;;;;;4.79;59.45;101511.50;5305073;26;20494;-90
2023/12/18 08:41:20;;;;;;;4.07;2.45;;;;;;;5.05;59.46;101506.84;5304506;26;20063;-90
2023/12/18 08:43:46;;;;;;;1.95;1.80;;;;;;;5.39;59.48;101505.72;5323438;26;20087;-91
2023/12/18 08:46:11;;;;;;;3.67;3.37;;;;;;;5.34;59.47;101515.09;5304142;26;31416;-90
2023/12/18 08:48:36;;;;;;;0.30;0.30;;;;;;;5.39;59.48;101512.59;5322474;26;25224;-90
2023/12/18 08:51:02;;;;;;;4.47;2.10;;;;;;;5.34;59.47;101511.63;5304126;26;33148;-90
2023/12/18 08:53:27;;;;;;;0.35;0.35;;;;;;;5.53;59.47;101505.94;5304922;26;20092;-91
2023/12/18 08:55:53;;;;;;;2.20;2.00;;;;;;;5.39;59.48;101504.84;5323408;26;20139;-91
2023/12/18 08:58:20;;;;;;;5.90;2.47;;;;;;;5.49;59.48;101499.00;5322214;26;29454;-90
2023/12/18 09:00:46;;;;;;;0.40;0.40;;;;;;;5.72;59.49;101500.25;5305968;26;20063;-90
2023/12/18 09:03:11;;;;;;;16.42;3.15;;;;;;;6.01;59.51;101507.59;5305158;26;22463;-91
2023/12/18 09:05:37;;;;;;;0.50;0.50;;;;;;;5.96;59.51;101504.94;5305240;26;20564;-90
2023/12/18 09:08:05;;;;;;;9.15;2.80;;;;;;;6.12;59.51;101508.59;5323833;26;20107;-91
2023/12/18 09:10:32;;;;;;;2.72;2.25;;;;;;;6.38;59.53;101503.78;5324926;26;20062;-90
2023/12/18 09:12:58;;;;;;;0.40;0.40;;;;;;;6.21;59.52;101507.87;5325151;26;20052;-91
2023/12/18 09:15:23;;;;;;;1.02;1.00;;;;;;;6.39;59.53;101503.84;5324255;26;20495;-90
2023/12/18 09:17:48;;;;;;;1.33;1.05;;;;;;;6.45;59.54;101503.91;5305598;26;20105;-90
2023/12/18 09:20:14;;;;;;;1.12;1.08;;;;;;;6.55;59.54;101502.28;5305337;26;20133;-91
2023/12/18 09:22:39;;;;;;;1.77;1.60;;;;;;;6.51;59.54;101508.28;5305461;26;20074;-90
2023/12/18 09:25:05;;;;;;;2.53;2.35;;;;;;;6.63;59.54;101492.06;5304840;26;31505;-91
2023/12/18 09:27:31;;;;;;;1.50;1.40;;;;;;;6.69;59.55;101498.16;5323786;26;20126;-91
2023/12/18 09:29:57;;;;;;;1.75;1.65;;;;;;;6.80;59.56;101495.69;5324338;26;20464;-91
2023/12/18 09:32:22;;;;;;;4.53;2.50;;;;;;;6.81;59.55;101497.41;5305577;26;20099;-90
2023/12/18 09:34:48;;;;;;;2.65;2.28;;;;;;;7.06;59.57;101494.25;5305170;26;21932;-90
2023/12/18 09:37:13;;;;;;;5.07;3.53;;;;;;;6.87;59.56;101484.56;5304716;26;25417;-91
2023/12/18 09:39:43;;;;;;;6.30;2.75;;;;;;;6.88;59.56;101488.91;5305684;26;20480;-91
2023/12/18 09:42:11;;;;;;;0.88;0.88;;;;;;;7.10;59.58;101484.81;5323831;26;20393;-92
2023/12/18 09:44:37;;;;;;;3.20;2.08;;;;;;;7.11;59.58;101475.31;5305351;26;21786;-89
2023/12/18 09:47:03;;;;;;;3.17;1.42;;;;;;;7.09;59.57;101472.69;5323943;26;20056;-89
2023/12/18 09:49:29;;;;;;;0.65;0.65;;;;;;;7.18;59.58;101461.56;5324268;26;20040;-90
2023/12/18 09:51:55;;;;;;;2.08;1.55;;;;;;;7.02;59.56;101476.06;5323867;26;20071;-89
2023/12/18 09:54:21;;;;;;;4.35;2.42;;;;;;;7.25;59.59;101459.03;5324084;26;20113;-89
2023/12/18 09:56:48;;;;;;;3.53;2.17;;;;;;;7.30;59.58;101457.34;5304806;26;20683;-89
2023/12/18 09:59:14;;;;;;;1.52;1.42;;;;;;;7.39;59.58;101459.16;5305781;26;20048;-88
2023/12/18 10:01:39;;;;;;;3.08;2.42;;;;;;;7.54;59.59;101450.63;5305397;26;20095;-89
2023/12/18 10:04:06;;;;;;;1.62;1.52;;;;;;;7.54;59.59;101453.22;5323883;26;20437;-90
2023/12/18 10:06:31;;;;;;;0.77;0.77;;;;;;;7.54;59.59;101448.91;5305525;26;20072;-90
2023/12/18 10:08:57;;;;;;;2.95;2.65;;;;;;;7.60;59.60;101453.28;5304965;26;22485;-90
2023/12/18 10:11:25;;;;;;;4.00;3.60;;;;;;;7.60;59.60;101454.16;5305245;26;20432;-91
2023/12/18 10:13:55;;;;;;;3.83;2.05;;;;;;;7.80;59.61;101449.09;5307051;26;20075;-89
2023/12/18 10:16:21;;;;;;;5.45;1.85;;;;;;;7.93;59.62;101444.84;5323916;26;20151;-90
2023/12/18 10:18:46;;;;;;;1.98;1.75;;;;;;;7.80;59.61;101433.53;5323705;26;20044;-90
2023/12/18 10:21:12;;;;;;;3.03;2.12;;;;;;;7.92;59.62;101428.44;5323284;26;22211;-89
2023/12/18 10:23:38;;;;;;;0.70;0.70;;;;;;;8.00;59.62;101428.47;5305579;26;20074;-91
2023/12/18 10:26:04;;;;;;;1.40;1.35;;;;;;;8.26;59.63;101428.59;5286955;26;20072;-91
2023/12/18 10:28:29;;;;;;;2.45;2.30;;;;;;;8.22;59.63;101424.25;5323943;26;20118;-90
2023/12/18 10:30:56;;;;;;;0.77;0.77;;;;;;;8.13;59.62;101432.00;5323831;26;20098;-91
2023/12/18 10:33:21;;;;;;;5.32;3.12;;;;;;;8.23;59.64;101426.84;5305671;26;20110;-89
2023/12/18 10:35:48;;;;;;;1.55;1.35;;;;;;;8.35;59.64;101425.22;5305263;26;20080;-90
2023/12/18 10:38:19;;;;;;;2.78;1.42;;;;;;;8.66;59.67;101429.63;5305822;26;20128;-90
2023/12/18 10:40:44;;;;;;;0.90;0.62;;;;;;;8.72;59.66;101424.44;5306169;26;20698;-91
2023/12/18 10:43:25;;;;;;;5.43;2.90;;;;;;;9.05;59.69;101409.81;5305536;26;20098;-91
2023/12/18 10:45:52;;;;;;;1.42;1.33;;;;;;;8.94;59.67;101414.97;5306003;26;20066;-91
2023/12/18 10:48:18;;;;;;;0.47;0.47;;;;;;;8.89;59.67;101412.38;5304895;26;20068;-91
2023/12/18 10:50:44;;;;;;;1.62;1.40;;;;;;;9.16;59.69;101410.66;5323908;26;20122;-91
2023/12/18 10:53:11;;;;;;;4.50;1.25;;;;;;;9.39;59.70;101405.47;5304618;26;20436;-89
2023/12/18 10:55:38;;;;;;;3.95;1.85;;;;;;;9.10;59.68;101408.06;5305444;26;20490;-91
2023/12/18 10:58:04;;;;;;;0.35;0.35;;;;;;;9.44;59.70;101401.97;5323822;26;20033;-90
2023/12/18 11:00:31;;;;;;;1.95;0.80;;;;;;;9.34;59.70;101397.66;5305058;26;20519;-90
2023/12/18 11:02:56;;;;;;;8.90;2.28;;;;;;;9.64;59.71;101394.16;5286716;26;20078;-91
2023/12/18 11:05:22;;;;;;;1.25;1.17;;;;;;;9.41;59.69;101391.59;5323674;26;20076;-91
2023/12/18 11:07:48;;;;;;;10.40;1.40;;;;;;;9.55;59.70;101381.19;5305033;26;20077;-91
2023/12/18 11:10:13;;;;;;;0.47;0.47;;;;;;;9.66;59.72;101376.81;5304134;26;28070;-91
2023/12/18 11:12:39;;;;;;;3.30;0.98;;;;;;;9.83;59.72;101375.03;5304868;26;20056;-90
2023/12/18 11:15:10;;;;;;;0.50;0.50;;;;;;;9.88;59.73;101382.84;5325399;26;20091;-91
2023/12/18 11:17:40;;;;;;;1.08;1.00;;;;;;;9.83;59.72;101374.19;5304819;26;20387;-91
2023/12/18 11:20:10;;;;;;;0.50;0.50;;;;;;;10.07;59.73;101368.91;5305957;26;20057;-90
2023/12/18 11:22:46;;;;;;;0.65;0.65;;;;;;;10.13;59.74;101365.37;5286735;26;20064;-91
2023/12/18 11:25:11;;;;;;;0.70;0.62;;;;;;;10.06;59.74;101367.16;5305075;26;20043;-90
2023/12/18 11:27:37;;;;;;;1.52;0.98;;;;;;;10.12;59.74;101361.94;5305142;26;20110;-90